createdAt,value
2023-04-16T00:02:00.526Z,8.00
2023-04-16T00:04:27.401Z,8.00
2023-04-16T00:06:54.739Z,8.00
2023-04-16T00:09:21.768Z,8.00
2023-04-16T00:11:48.554Z,8.00
2023-04-16T00:14:15.509Z,8.00
2023-04-16T00:16:42.367Z,8.00
2023-04-16T00:19:09.766Z,8.00
2023-04-16T00:21:36.751Z,8.00
2023-04-16T00:24:03.604Z,8.00
2023-04-16T00:26:30.540Z,8.00
2023-04-16T00:28:57.332Z,8.00
2023-04-16T00:31:29.047Z,8.00
2023-04-16T00:33:56.066Z,8.00
2023-04-16T00:36:27.339Z,8.00
2023-04-16T00:38:54.736Z,8.00
2023-04-16T00:41:23.087Z,8.00
2023-04-16T00:43:50.830Z,8.00
2023-04-16T00:46:19.020Z,8.00
2023-04-16T00:48:46.291Z,8.00
2023-04-16T00:51:13.108Z,8.00
2023-04-16T00:53:40.016Z,8.00
2023-04-16T00:56:07.471Z,8.00
2023-04-16T00:58:35.091Z,8.00
2023-04-16T01:01:01.975Z,8.00
2023-04-16T01:03:39.834Z,8.00
2023-04-16T01:06:07.507Z,8.00
2023-04-16T01:08:34.387Z,8.00
2023-04-16T01:11:01.587Z,8.00
2023-04-16T01:13:28.391Z,8.00
2023-04-16T01:15:55.605Z,8.00
2023-04-16T01:18:23.096Z,8.00
2023-04-16T01:20:50.922Z,8.00
2023-04-16T01:23:21.435Z,8.00
2023-04-16T01:25:48.325Z,8.00
2023-04-16T01:28:15.171Z,8.00
2023-04-16T01:30:42.158Z,8.00
2023-04-16T01:33:12.925Z,8.10
2023-04-16T01:35:41.100Z,8.10
2023-04-16T01:38:08.987Z,8.10
2023-04-16T01:40:37.048Z,8.10
2023-04-16T01:43:04.359Z,8.10
2023-04-16T01:45:35.012Z,8.20
2023-04-16T01:48:02.381Z,8.20
2023-04-16T01:50:29.917Z,8.20
2023-04-16T01:52:56.767Z,8.20
2023-04-16T01:55:23.610Z,8.20
2023-04-16T01:57:50.980Z,8.20
2023-04-16T02:00:17.849Z,8.20
2023-04-16T02:02:44.838Z,8.30
2023-04-16T02:05:11.795Z,8.20
2023-04-16T02:07:38.602Z,8.30
2023-04-16T02:10:07.168Z,8.30
2023-04-16T02:12:33.992Z,8.30
2023-04-16T02:15:00.949Z,8.30
2023-04-16T02:17:27.824Z,8.30
2023-04-16T02:19:54.657Z,8.30
2023-04-16T02:22:21.529Z,8.30
2023-04-16T02:24:48.365Z,8.30
2023-04-16T02:27:15.160Z,8.30
2023-04-16T02:29:42.006Z,8.30
2023-04-16T02:32:08.962Z,8.30
2023-04-16T02:34:35.944Z,8.30
2023-04-16T02:37:02.761Z,8.40
2023-04-16T02:39:29.561Z,8.40
2023-04-16T02:41:56.453Z,8.40
2023-04-16T02:44:23.298Z,8.40
2023-04-16T02:46:50.117Z,8.40
2023-04-16T02:49:16.939Z,8.40
2023-04-16T02:51:43.763Z,8.40
2023-04-16T02:54:10.592Z,8.40
2023-04-16T02:56:37.423Z,8.40
2023-04-16T02:59:04.249Z,8.40
2023-04-16T03:01:31.115Z,8.40
2023-04-16T03:03:58.037Z,8.40
2023-04-16T03:06:24.881Z,8.40
2023-04-16T03:08:51.689Z,8.40
2023-04-16T03:11:18.548Z,8.40
2023-04-16T03:13:45.594Z,8.40
2023-04-16T03:16:12.449Z,8.40
2023-04-16T03:18:39.303Z,8.40
2023-04-16T03:21:06.316Z,8.40
2023-04-16T03:23:33.621Z,8.40
2023-04-16T03:26:00.494Z,8.40
2023-04-16T03:28:27.357Z,8.50
2023-04-16T03:30:54.268Z,8.50
2023-04-16T03:33:21.649Z,8.40
2023-04-16T03:35:56.053Z,8.50
2023-04-16T03:38:24.263Z,8.50
2023-04-16T03:40:51.224Z,8.50
2023-04-16T03:43:17.985Z,8.50
2023-04-16T03:45:45.739Z,8.50
2023-04-16T03:48:12.841Z,8.50
2023-04-16T03:50:39.712Z,8.50
2023-04-16T03:53:06.518Z,8.50
2023-04-16T03:55:33.349Z,8.50
2023-04-16T03:58:03.135Z,8.50
2023-04-16T04:00:30.597Z,8.50
2023-04-16T04:02:57.878Z,8.50
2023-04-16T04:05:24.823Z,8.50
2023-04-16T04:07:51.671Z,8.50
2023-04-16T04:10:18.433Z,8.50
2023-04-16T04:12:45.499Z,8.50
2023-04-16T04:15:12.471Z,8.50
2023-04-16T04:17:39.322Z,8.50
2023-04-16T04:20:06.813Z,8.50
2023-04-16T04:22:33.908Z,8.50
2023-04-16T04:25:00.723Z,8.50
2023-04-16T04:27:27.589Z,8.60
2023-04-16T04:29:54.428Z,8.60
2023-04-16T04:32:21.254Z,8.60
2023-04-16T04:34:48.060Z,8.60
2023-04-16T04:37:14.882Z,8.60
2023-04-16T04:39:41.683Z,8.60
2023-04-16T04:42:08.801Z,8.60
2023-04-16T04:44:35.653Z,8.60
2023-04-16T04:47:02.488Z,8.60
2023-04-16T04:49:30.529Z,8.60
2023-04-16T04:51:57.463Z,8.70
2023-04-16T04:54:24.282Z,8.70
2023-04-16T04:56:52.556Z,8.70
2023-04-16T04:59:20.964Z,8.70
2023-04-16T05:01:47.895Z,8.70
2023-04-16T05:04:14.877Z,8.80
2023-04-16T05:06:41.704Z,8.80
2023-04-16T05:09:14.495Z,8.80
2023-04-16T05:11:42.261Z,8.80
2023-04-16T05:14:09.285Z,8.80
2023-04-16T05:16:36.922Z,8.80
2023-04-16T05:19:04.275Z,8.80
2023-04-16T05:21:31.347Z,8.80
2023-04-16T05:23:58.853Z,8.80
2023-04-16T05:26:25.763Z,8.80
2023-04-16T05:28:52.598Z,8.80
2023-04-16T05:31:19.547Z,8.80
2023-04-16T05:33:46.502Z,8.80
2023-04-16T05:36:13.298Z,8.80
2023-04-16T05:38:40.285Z,8.80
2023-04-16T05:41:07.087Z,8.80
2023-04-16T05:43:33.930Z,8.90
2023-04-16T05:46:00.930Z,8.90
2023-04-16T05:48:27.750Z,8.90
2023-04-16T05:50:54.528Z,8.90
2023-04-16T05:53:21.312Z,8.90
2023-04-16T05:55:48.158Z,8.90
2023-04-16T05:58:14.984Z,8.90
2023-04-16T06:00:41.782Z,8.90
2023-04-16T06:03:08.871Z,8.90
2023-04-16T06:05:35.957Z,8.90
2023-04-16T06:08:02.841Z,8.90
2023-04-16T06:10:29.690Z,8.90
2023-04-16T06:12:56.558Z,8.90
2023-04-16T06:15:23.387Z,8.90
2023-04-16T06:17:50.904Z,8.90
2023-04-16T06:20:17.838Z,8.90
2023-04-16T06:22:44.649Z,8.90
2023-04-16T06:25:11.619Z,8.90
2023-04-16T06:27:38.450Z,8.90
2023-04-16T06:30:11.292Z,8.90
2023-04-16T06:32:38.206Z,8.90
2023-04-16T06:35:05.621Z,8.90
2023-04-16T06:37:32.503Z,8.90
2023-04-16T06:39:59.491Z,8.90
2023-04-16T06:42:26.457Z,8.90
2023-04-16T06:44:53.350Z,8.90
2023-04-16T06:47:20.265Z,8.90
2023-04-16T06:49:48.935Z,8.90
2023-04-16T06:52:15.737Z,8.90
2023-04-16T06:54:42.538Z,8.90
2023-04-16T06:57:09.331Z,8.90
2023-04-16T06:59:36.375Z,8.90
2023-04-16T07:02:03.266Z,8.90
2023-04-16T07:04:30.096Z,9.00
2023-04-16T07:06:56.893Z,9.00
2023-04-16T07:09:23.742Z,9.00
2023-04-16T07:11:50.705Z,9.10
2023-04-16T07:14:17.581Z,9.20
2023-04-16T07:16:44.442Z,9.20
2023-04-16T07:19:11.579Z,9.20
2023-04-16T07:21:39.260Z,9.30
2023-04-16T07:24:06.177Z,9.20
2023-04-16T07:26:33.035Z,9.20
2023-04-16T07:28:59.860Z,9.20
2023-04-16T07:31:27.150Z,9.20
2023-04-16T07:33:53.969Z,9.20
2023-04-16T07:36:21.217Z,9.20
2023-04-16T07:38:48.046Z,9.20
2023-04-16T07:41:14.952Z,9.30
2023-04-16T07:43:41.799Z,9.30
2023-04-16T07:46:08.670Z,9.30
2023-04-16T07:48:35.515Z,9.30
2023-04-16T07:51:02.327Z,9.40
2023-04-16T07:53:29.125Z,9.30
2023-04-16T07:55:56.081Z,9.40
2023-04-16T07:58:22.876Z,9.40
2023-04-16T08:00:50.985Z,9.40
2023-04-16T08:03:18.507Z,9.40
2023-04-16T08:05:45.644Z,9.40
2023-04-16T08:08:12.480Z,9.40
2023-04-16T08:10:39.576Z,9.50
2023-04-16T08:13:06.354Z,9.50
2023-04-16T08:15:33.182Z,9.50
2023-04-16T08:18:00.366Z,9.50
2023-04-16T08:20:27.439Z,9.50
2023-04-16T08:22:54.892Z,9.60
2023-04-16T08:25:23.704Z,9.60
2023-04-16T08:27:51.043Z,9.70
2023-04-16T08:30:17.933Z,9.70
2023-04-16T08:32:44.889Z,9.80
2023-04-16T08:35:11.961Z,9.80
2023-04-16T08:37:38.894Z,9.80
2023-04-16T08:40:06.373Z,9.80
2023-04-16T08:42:44.991Z,9.80
2023-04-16T08:45:17.114Z,9.80
2023-04-16T08:47:49.299Z,9.90
2023-04-16T08:50:17.036Z,9.90
2023-04-16T08:52:52.166Z,9.90
2023-04-16T08:55:23.518Z,9.90
2023-04-16T08:58:14.685Z,9.90
2023-04-16T09:00:42.114Z,9.90
2023-04-16T09:03:10.105Z,9.90
2023-04-16T09:05:37.575Z,9.80
2023-04-16T09:08:07.440Z,9.80
2023-04-16T09:10:34.825Z,9.80
2023-04-16T09:13:01.781Z,9.80
2023-04-16T09:15:29.509Z,9.90
2023-04-16T09:17:59.216Z,9.90
2023-04-16T09:20:26.208Z,9.90
2023-04-16T09:22:54.749Z,9.90
2023-04-16T09:25:22.625Z,9.90
2023-04-16T09:27:50.917Z,9.80
2023-04-16T09:30:26.115Z,9.80
2023-04-16T09:33:11.729Z,9.80
2023-04-16T09:35:54.246Z,9.90
2023-04-16T09:38:21.174Z,9.90
2023-04-16T09:40:48.040Z,9.90
2023-04-16T09:43:16.584Z,9.90
2023-04-16T09:45:54.140Z,9.90
2023-04-16T09:48:31.840Z,9.90
2023-04-16T09:50:59.953Z,9.90
2023-04-16T09:53:31.687Z,9.90
2023-04-16T09:55:59.283Z,9.90
2023-04-16T09:58:26.371Z,9.80
2023-04-16T10:01:01.577Z,9.80
2023-04-16T10:03:32.847Z,9.70
2023-04-16T10:06:01.903Z,9.70
2023-04-16T10:08:29.108Z,9.60
2023-04-16T10:10:56.408Z,9.60
2023-04-16T10:13:27.754Z,9.50
2023-04-16T10:15:57.988Z,9.50
2023-04-16T10:18:25.423Z,9.50
2023-04-16T10:20:52.268Z,9.40
2023-04-16T10:23:21.834Z,9.40
2023-04-16T10:25:50.088Z,9.40
2023-04-16T10:28:17.006Z,9.30
2023-04-16T10:30:52.679Z,9.20
2023-04-16T10:33:27.722Z,9.20
2023-04-16T10:36:12.041Z,9.10
2023-04-16T10:38:41.189Z,9.10
2023-04-16T10:41:09.233Z,9.10
2023-04-16T10:43:41.477Z,9.10
2023-04-16T10:46:31.705Z,9.10
2023-04-16T10:49:03.483Z,9.00
2023-04-16T10:51:35.347Z,9.00
2023-04-16T10:54:08.188Z,9.10
2023-04-16T10:56:36.807Z,9.10
2023-04-16T10:59:11.231Z,9.10
2023-04-16T11:01:42.411Z,9.10
2023-04-16T11:04:21.928Z,9.20
2023-04-16T11:07:17.765Z,9.20
2023-04-16T11:09:47.707Z,9.20
2023-04-16T11:12:16.944Z,9.20
2023-04-16T11:14:47.630Z,9.20
2023-04-16T11:17:14.554Z,9.30
2023-04-16T11:19:42.676Z,9.30
2023-04-16T11:22:12.317Z,9.30
2023-04-16T11:24:40.944Z,9.40
2023-04-16T11:27:08.347Z,9.50
2023-04-16T11:29:35.514Z,9.60
2023-04-16T11:32:02.504Z,9.60
2023-04-16T11:34:29.423Z,9.70
2023-04-16T11:36:56.326Z,9.80
2023-04-16T11:39:23.184Z,10.00
2023-04-16T11:41:52.376Z,10.20
2023-04-16T11:44:23.883Z,10.30
2023-04-16T11:46:51.952Z,10.30
2023-04-16T11:49:28.038Z,10.30
2023-04-16T11:51:55.372Z,10.20
2023-04-16T11:54:23.613Z,10.20
2023-04-16T11:56:51.693Z,10.10
2023-04-16T11:59:20.478Z,10.10
2023-04-16T12:01:53.309Z,10.10
2023-04-16T12:04:22.342Z,10.00
2023-04-16T12:07:08.153Z,10.00
2023-04-16T12:09:38.564Z,10.00
2023-04-16T12:12:24.998Z,10.00
2023-04-16T12:14:52.295Z,10.10
2023-04-16T12:17:22.706Z,10.10
2023-04-16T12:19:56.800Z,10.10
2023-04-16T12:22:31.477Z,10.10
2023-04-16T12:24:59.410Z,10.10
2023-04-16T12:27:29.485Z,10.10
2023-04-16T12:30:07.260Z,10.10
2023-04-16T12:32:34.079Z,10.20
2023-04-16T12:35:01.212Z,10.30
2023-04-16T12:37:28.040Z,10.30
2023-04-16T12:39:55.099Z,10.40
2023-04-16T12:42:22.077Z,10.50
2023-04-16T12:44:48.945Z,10.60
2023-04-16T12:47:17.239Z,10.70
2023-04-16T12:49:44.825Z,10.70
2023-04-16T12:52:11.758Z,10.80
2023-04-16T12:54:38.601Z,10.80
2023-04-16T12:57:05.556Z,11.00
2023-04-16T12:59:32.379Z,11.00
2023-04-16T13:02:01.213Z,11.10
2023-04-16T13:04:28.244Z,11.10
2023-04-16T13:06:55.190Z,11.20
2023-04-16T13:09:22.107Z,11.20
2023-04-16T13:11:48.914Z,11.20
2023-04-16T13:14:15.799Z,11.20
2023-04-16T13:16:42.674Z,11.30
2023-04-16T13:19:09.673Z,11.40
2023-04-16T13:21:36.928Z,11.50
2023-04-16T13:24:03.931Z,11.50
2023-04-16T13:26:30.732Z,11.50
2023-04-16T13:28:57.546Z,11.50
2023-04-16T13:31:24.726Z,11.60
2023-04-16T13:33:51.573Z,11.60
2023-04-16T13:36:18.445Z,11.60
2023-04-16T13:38:45.769Z,11.60
2023-04-16T13:41:12.647Z,11.60
2023-04-16T13:43:39.504Z,11.60
2023-04-16T13:46:06.409Z,11.60
2023-04-16T13:48:33.312Z,11.70
2023-04-16T13:51:00.123Z,11.70
2023-04-16T13:53:27.027Z,11.80
2023-04-16T13:55:53.983Z,11.90
2023-04-16T13:58:20.886Z,11.90
2023-04-16T14:00:47.953Z,11.90
2023-04-16T14:03:14.887Z,11.90
2023-04-16T14:05:41.818Z,11.90
2023-04-16T14:08:08.727Z,11.90
2023-04-16T14:10:35.993Z,11.90
2023-04-16T14:13:02.895Z,11.80
2023-04-16T14:15:30.042Z,11.80
2023-04-16T14:17:56.936Z,11.80
2023-04-16T14:20:24.067Z,11.80
2023-04-16T14:22:51.446Z,11.90
2023-04-16T14:25:18.518Z,11.90
2023-04-16T14:27:45.367Z,11.90
2023-04-16T14:30:12.394Z,11.90
2023-04-16T14:32:39.304Z,11.90
2023-04-16T14:35:06.945Z,11.80
2023-04-16T14:37:35.897Z,11.80
2023-04-16T14:40:08.198Z,11.80
2023-04-16T14:42:36.707Z,11.60
2023-04-16T14:45:06.509Z,11.60
2023-04-16T14:47:34.461Z,11.50
2023-04-16T14:50:02.011Z,11.50
2023-04-16T14:52:29.115Z,11.40
2023-04-16T14:54:56.201Z,11.30
2023-04-16T14:57:23.151Z,11.30
2023-04-16T14:59:50.546Z,11.20
2023-04-16T15:02:17.615Z,11.20
2023-04-16T15:04:44.674Z,11.10
2023-04-16T15:07:11.518Z,11.10
2023-04-16T15:09:38.391Z,11.10
2023-04-16T15:12:05.602Z,11.10
2023-04-16T15:14:32.424Z,11.00
2023-04-16T15:16:59.305Z,11.00
2023-04-16T15:19:26.159Z,11.00
2023-04-16T15:21:53.031Z,11.10
2023-04-16T15:24:20.021Z,11.10
2023-04-16T15:26:46.966Z,11.10
2023-04-16T15:29:13.844Z,11.10
2023-04-16T15:31:40.810Z,11.10
2023-04-16T15:34:07.739Z,11.10
2023-04-16T15:36:34.570Z,11.20
2023-04-16T15:39:01.453Z,11.20
2023-04-16T15:41:29.925Z,11.10
2023-04-16T15:43:56.803Z,11.10
2023-04-16T15:46:23.667Z,11.10
2023-04-16T15:48:50.664Z,11.10
2023-04-16T15:51:17.556Z,11.10
2023-04-16T15:53:45.308Z,11.10
2023-04-16T15:56:12.235Z,11.10
2023-04-16T15:58:39.762Z,11.10
2023-04-16T16:01:08.770Z,11.10
2023-04-16T16:03:36.466Z,11.10
2023-04-16T16:06:07.730Z,11.10
2023-04-16T16:08:36.007Z,11.10
2023-04-16T16:11:03.007Z,11.00
2023-04-16T16:13:30.161Z,11.00
2023-04-16T16:15:57.032Z,11.00
2023-04-16T16:18:24.252Z,11.10
2023-04-16T16:20:59.506Z,11.10
2023-04-16T16:23:27.071Z,11.10
2023-04-16T16:25:54.483Z,11.10
2023-04-16T16:28:21.892Z,11.20
2023-04-16T16:30:50.874Z,11.20
2023-04-16T16:33:17.696Z,11.20
2023-04-16T16:35:44.581Z,11.30
2023-04-16T16:38:11.402Z,11.40
2023-04-16T16:40:38.876Z,11.40
2023-04-16T16:43:05.995Z,11.40
2023-04-16T16:45:32.969Z,11.40
2023-04-16T16:47:59.856Z,11.40
2023-04-16T16:50:27.220Z,11.40
2023-04-16T16:52:54.033Z,11.30
2023-04-16T16:55:21.175Z,11.20
2023-04-16T16:57:47.996Z,11.20
2023-04-16T17:00:16.227Z,11.20
2023-04-16T17:02:43.727Z,11.20
2023-04-16T17:05:11.035Z,11.20
2023-04-16T17:07:38.306Z,11.10
2023-04-16T17:10:06.852Z,11.10
2023-04-16T17:12:33.950Z,11.00
2023-04-16T17:15:00.978Z,11.00
2023-04-16T17:17:28.676Z,10.90
2023-04-16T17:19:55.811Z,10.90
2023-04-16T17:22:22.672Z,10.80
2023-04-16T20:44:40.375Z,8.20
2023-04-16T20:47:08.405Z,8.20
2023-04-16T20:49:35.297Z,8.20
2023-04-16T20:52:02.450Z,8.10
2023-04-16T20:54:30.061Z,8.10
2023-04-16T20:56:57.499Z,8.10
2023-04-16T20:59:24.715Z,8.10
2023-04-16T21:01:52.335Z,8.10
2023-04-16T21:04:19.474Z,8.10
2023-04-16T21:06:46.746Z,8.00
2023-04-16T21:09:13.713Z,8.00
2023-04-16T21:11:40.778Z,8.00
2023-04-16T21:14:07.647Z,8.00
2023-04-16T21:16:34.548Z,8.00
2023-04-16T21:19:01.431Z,8.00
2023-04-16T21:21:28.289Z,8.00
2023-04-16T21:23:55.036Z,8.00
2023-04-16T21:26:21.769Z,8.00
2023-04-16T21:28:48.602Z,7.90
2023-04-16T21:31:15.496Z,7.90
2023-04-16T21:33:42.245Z,7.90
2023-04-16T21:36:10.103Z,7.90
2023-04-16T21:38:36.881Z,7.90
2023-04-16T21:41:03.687Z,7.90
2023-04-16T21:43:32.010Z,7.90
2023-04-16T21:45:59.557Z,7.90
2023-04-16T21:48:27.023Z,7.90
2023-04-16T21:51:06.224Z,7.90
2023-04-16T21:53:33.253Z,7.90
2023-04-16T21:56:00.303Z,7.90
2023-04-16T21:58:27.201Z,7.90
2023-04-16T22:00:54.123Z,7.80
2023-04-16T22:03:28.191Z,7.80
2023-04-16T22:06:01.594Z,7.80
2023-04-16T22:08:29.182Z,7.80
2023-04-16T22:11:00.000Z,7.80
2023-04-16T22:13:28.307Z,7.80
2023-04-16T22:15:55.046Z,7.80
2023-04-16T22:18:25.504Z,7.80
2023-04-16T22:20:56.201Z,7.80
2023-04-16T22:23:23.635Z,7.80
2023-04-16T22:25:51.052Z,7.80
2023-04-16T22:28:17.784Z,7.80
2023-04-16T22:30:44.587Z,7.80
2023-04-16T22:33:11.447Z,7.80
2023-04-16T22:35:38.305Z,7.80
2023-04-16T22:38:05.439Z,7.70
2023-04-16T22:40:32.306Z,7.70
2023-04-16T22:42:59.064Z,7.70
2023-04-16T22:45:27.187Z,7.70
2023-04-16T22:47:54.130Z,7.70
2023-04-16T22:50:20.946Z,7.70
2023-04-16T22:52:47.690Z,7.70
2023-04-16T22:55:14.416Z,7.70
2023-04-16T22:57:41.242Z,7.70
2023-04-16T23:00:15.568Z,7.60
2023-04-16T23:02:42.952Z,7.60
2023-04-16T23:05:10.166Z,7.60
2023-04-16T23:07:37.073Z,7.60
2023-04-16T23:10:04.167Z,7.50
2023-04-16T23:12:30.986Z,7.50
2023-04-16T23:14:58.246Z,7.50
2023-04-16T23:17:25.197Z,7.50
2023-04-16T23:19:52.079Z,7.40
2023-04-16T23:22:18.912Z,7.40
2023-04-16T23:24:45.803Z,7.40
2023-04-16T23:27:12.546Z,7.40
2023-04-16T23:29:39.348Z,7.40
2023-04-16T23:32:06.132Z,7.40
2023-04-16T23:34:32.889Z,7.40
2023-04-16T23:36:59.639Z,7.30
2023-04-16T23:39:27.155Z,7.30
2023-04-16T23:41:53.901Z,7.30
2023-04-16T23:44:20.698Z,7.30
2023-04-16T23:46:47.532Z,7.30
2023-04-16T23:49:14.299Z,7.20
2023-04-16T23:51:41.248Z,7.20
2023-04-16T23:54:08.047Z,7.20
2023-04-16T23:56:34.829Z,7.20
2023-04-16T23:59:01.629Z,7.20
